Impacts METAR Board
IDs:

KCVG - Cincinnati Intl, KY, US

Updated at: 0500 UTC 17 Aug 2018
Potential Impact None Slight Moderate High
Time 16/17Z 16/18Z 16/19Z 16/20Z 16/21Z 16/22Z 16/23Z 17/00Z 17/01Z 17/02Z 17/03Z 17/04Z 17/05Z
Temp71 73 74 74 78 79 77 74 74 74 74 74 74
Dewpt70 71 71 73 75 75 73 73 74 74 74 74 74
Altim30.08 30.05 30.05 30.03 30.01 29.99 30.01 30.01 30.02 30.02 30.02 30.02 30.03
VIS1.5 7 10 6 10 9 7 7 2.5 9 1 1 7
CIG10 18 17 37 80 100 39 55 41 65 22 7 13
CoverOVCOVCOVCOVCBKNBKNOVCOVCOVCOVCOVCOVCOVC
FltCatIFRMVFRMVFRVFRVFRVFRVFRVFRIFRVFRIFRIFRMVFR
WX-RA BR-RA-RA-RA BR-----TSRA-RARA BR--+TSRA BR+TSRA BR-TSRA
WDir190190190170190200210190190190240210210
WSpd10 11 11 8 6 5 8 4 8 5 10 10 6
WGst-- -- 22 -- -- -- -- -- -- -- 14 20 --
Raw hourly METARs
KCVG 161652Z 19010KT 1 1/2SM -RA BR OVC010 22/21 A3008 RMK AO2 SFC VIS 2 SLP176 P0006 T02170211
KCVG 161756Z 19011KT 7SM -RA SCT010 BKN018 OVC055 23/22 A3005 RMK AO2 P0000 T02280217
KCVG 161852Z 19011G22KT 10SM -RA OVC017 23/22 A3005 RMK AO2 RAE00B50 SLP166 CIG 013V021 P0000 T02330217
KCVG 162003Z 17008KT 6SM -RA BR SCT022 BKN037 OVC060 23/23 A3003 RMK AO2 VIS LWR NW P0000 T02330228
KCVG 162052Z 19006KT 10SM FEW015 FEW036 BKN080 BKN250 26/24 A3001 RMK AO2 RAE40 SLP151 P0001 60001 T02560239 58015
KCVG 162152Z 20005KT 9SM FEW024 SCT070 BKN100 BKN250 26/24 A2999 RMK AO2 RAB28E51 SLP147 P0000 T02610239
KCVG 162301Z 21008KT 7SM -TSRA FEW031 BKN039CB BKN100 OVC250 25/23 A3001 RMK AO2 LTG DSNT SW AND W RAB2255 TSB01 OCNL LTGICCG SW TS SW-W MOV NE P0002 T02500228
KCVG 162352Z 19004KT 7SM -RA FEW041 BKN055 OVC085 23/23 A3001 RMK AO2 RAB2255 TSB01E44 SLP153 TS MOV NE BINOVC OHD P0053 60054 T02330228 10267 20228 53001
KCVG 170057Z 19008KT 2 1/2SM RA BR FEW029 BKN041 OVC050 23/23 A3002 RMK AO2 P0001 T02330233
KCVG 170152Z 19005KT 9SM BKN065 OVC080 23/23 A3002 RMK AO2 LTG DSNT SW RAE35 SLP156 FRQ LTGIC DSNT SW CB DSNT SW P0028 T02330233
KCVG 170303Z 24010G14KT 1SM R18C/P6000FT +TSRA BR SCT013 BKN022CB OVC070 23/23 A3002 RMK AO2 OCNL LTGIC OHD-W TS OHD-W MOV NE P0023 T02330233
KCVG 170352Z 21010G20KT 1SM R18C/3500VP6000FT +TSRA BR BKN007 OVC012CB 23/23 A3002 RMK AO2 SLP156 OCNL LTGIC OHD-SW TS OHD-SW MOV NE P0094 T02330233
KCVG 170452Z 21006KT 7SM -TSRA SCT007 BKN013CB OVC027 23/23 A3003 RMK AO2 SLP160 FRQ LTGICCG NE-SE TS NE-SE MOV NE P0079 T02330233 402670200



Page loaded:  05:24 UTC  |   10:24 PM Pacific  |   11:24 PM Mountain  |   12:24 AM Central  |   01:24 AM Eastern

 

ADVISORIES

FORECASTS

FORECASTS

OBSERVATIONS

USER TOOLS

ABOUT US